Time;durP1;ratioP1;P1;durP2;ratioP2;P2;SDS_P1;SDS_P2;PMS_P1;PMS_P2;Temp;Humidity;BMP_temperature;BMP_pressure;BME280_temperature;BME280_humidity;BME280_pressure;Samples;Min_cycle;Max_cycle;Signal;HPM_P1;HPM_P2
2024/01/02 00:00:55;;;;;;;15.90;6.30;;;;;;;-1.65;98.26;100631.31;10412466;28;20049;-73
2024/01/02 00:05:56;;;;;;;14.00;6.75;;;;;;;-1.41;98.38;100671.69;10413423;28;20053;-73
2024/01/02 00:10:57;;;;;;;12.95;6.88;;;;;;;-1.52;98.84;100665.38;10412195;28;20037;-73
2024/01/02 00:15:57;;;;;;;12.15;6.18;;;;;;;-1.38;98.76;100666.31;10411721;28;20091;-73
2024/01/02 00:20:58;;;;;;;12.05;6.15;;;;;;;-1.25;98.42;100665.63;10414782;28;20430;-73
2024/01/02 00:25:59;;;;;;;13.07;5.43;;;;;;;-1.62;97.79;100585.09;10420181;28;20124;-73
2024/01/02 00:31:00;;;;;;;16.05;7.40;;;;;;;-1.21;97.88;100643.66;10419407;28;20045;-73
2024/01/02 00:36:00;;;;;;;14.88;6.75;;;;;;;-1.05;98.64;100628.84;10420613;28;20068;-73
2024/01/02 00:41:02;;;;;;;18.00;8.23;;;;;;;-1.32;97.99;100609.53;10418227;28;20065;-73
2024/01/02 00:46:03;;;;;;;14.98;7.82;;;;;;;-1.63;98.53;100573.00;10420008;28;20044;-73
2024/01/02 00:51:04;;;;;;;20.90;8.90;;;;;;;-0.99;99.42;100610.25;10419321;28;20520;-73
2024/01/02 00:56:05;;;;;;;22.20;11.20;;;;;;;-0.41;100.00;100602.56;10420027;28;20487;-73
2024/01/02 01:01:06;;;;;;;19.73;11.43;;;;;;;-0.11;100.00;100592.88;10418869;28;20045;-73
2024/01/02 01:06:07;;;;;;;21.25;12.13;;;;;;;-0.02;100.00;100607.16;10419291;28;20038;-73
2024/01/02 01:11:07;;;;;;;21.63;11.85;;;;;;;-0.01;100.00;100601.00;10418478;28;20084;-72
2024/01/02 01:16:08;;;;;;;21.58;12.43;;;;;;;-0.21;100.00;100555.19;10418956;28;20042;-72
2024/01/02 01:21:09;;;;;;;25.05;13.45;;;;;;;-0.30;100.00;100546.19;10418787;28;20038;-72
2024/01/02 01:26:10;;;;;;;24.67;12.88;;;;;;;-0.09;100.00;100559.69;10418945;28;20131;-73
2024/01/02 01:31:11;;;;;;;21.75;13.23;;;;;;;0.47;100.00;100600.66;10417579;28;20136;-72
2024/01/02 01:36:11;;;;;;;26.27;15.10;;;;;;;0.34;100.00;100564.84;10416700;28;20092;-73
2024/01/02 01:41:13;;;;;;;31.70;14.20;;;;;;;0.43;100.00;100548.56;10418143;28;20071;-72
2024/01/02 01:46:15;;;;;;;27.00;14.48;;;;;;;0.86;100.00;100589.41;10417019;28;20041;-72
2024/01/02 01:51:17;;;;;;;28.30;16.17;;;;;;;0.75;100.00;100556.13;10417489;28;20186;-72
2024/01/02 01:56:18;;;;;;;25.88;16.27;;;;;;;1.07;100.00;100602.84;10416922;28;20037;-73
2024/01/02 02:01:19;;;;;;;26.20;15.48;;;;;;;1.04;100.00;100588.19;10416904;28;20048;-75
2024/01/02 02:06:19;;;;;;;27.08;14.82;;;;;;;0.93;100.00;100587.22;10417532;28;20049;-72
2024/01/02 02:11:21;;;;;;;24.25;15.32;;;;;;;0.79;100.00;100565.44;10416853;28;20536;-72
2024/01/02 02:16:21;;;;;;;23.85;14.52;;;;;;;0.54;100.00;100542.66;10416707;28;20095;-73
2024/01/02 02:21:22;;;;;;;22.75;12.05;;;;;;;0.23;100.00;100555.06;10415471;28;20087;-73
2024/01/02 02:26:23;;;;;;;23.92;12.90;;;;;;;0.32;100.00;100592.00;10415466;28;20033;-72
2024/01/02 02:31:24;;;;;;;20.85;12.35;;;;;;;0.13;100.00;100593.16;10415945;28;20045;-72
2024/01/02 02:36:25;;;;;;;41.35;21.92;;;;;;;-0.02;100.00;100594.94;10415744;28;20061;-72
2024/01/02 02:41:25;;;;;;;40.15;23.27;;;;;;;-0.02;100.00;100600.16;10415415;28;20048;-73
2024/01/02 02:46:26;;;;;;;38.67;21.05;;;;;;;-0.09;100.00;100587.56;10414774;28;20040;-73
2024/01/02 02:51:27;;;;;;;37.80;20.52;;;;;;;-0.11;100.00;100581.59;10414527;28;20041;-73
2024/01/02 02:56:28;;;;;;;24.00;13.77;;;;;;;-0.11;100.00;100582.44;10414920;28;20547;-74
2024/01/02 03:01:28;;;;;;;31.20;15.85;;;;;;;-0.36;100.00;100562.22;10415415;28;20095;-72
2024/01/02 03:06:29;;;;;;;23.60;13.15;;;;;;;-0.33;100.00;100585.53;10414141;28;20561;-71
2024/01/02 03:11:30;;;;;;;22.23;12.90;;;;;;;-0.28;100.00;100578.22;10414921;28;20037;-71
2024/01/02 03:16:31;;;;;;;23.13;12.10;;;;;;;-0.28;100.00;100580.00;10414823;28;20556;-72
2024/01/02 03:21:32;;;;;;;26.25;12.60;;;;;;;-0.34;100.00;100586.44;10413490;28;20037;-71
2024/01/02 03:26:33;;;;;;;21.30;12.57;;;;;;;-0.50;100.00;100562.19;10414221;28;20072;-71
2024/01/02 03:31:34;;;;;;;21.60;13.35;;;;;;;-0.90;100.00;100533.22;10413189;28;20038;-72
2024/01/02 03:36:34;;;;;;;17.90;11.05;;;;;;;-0.65;100.00;100587.44;10411183;28;20489;-72
2024/01/02 03:41:35;;;;;;;33.95;18.25;;;;;;;-0.63;100.00;100580.34;10409597;28;20120;-72
2024/01/02 03:46:36;;;;;;;41.58;17.98;;;;;;;-0.63;100.00;100590.78;10413287;28;20045;-73
2024/01/02 03:51:37;;;;;;;46.17;22.60;;;;;;;-0.96;100.00;100534.47;10413747;28;20041;-72
2024/01/02 03:56:38;;;;;;;31.65;17.88;;;;;;;-0.78;100.00;100581.22;10412147;28;20045;-72
2024/01/02 04:01:43;;;;;;;24.27;14.02;;;;;;;-0.81;100.00;100576.19;10413170;28;20041;-71
2024/01/02 04:06:46;;;;;;;29.95;15.88;;;;;;;-1.04;100.00;100556.69;10412530;28;20049;-71
2024/01/02 04:11:48;;;;;;;31.83;16.30;;;;;;;-1.05;100.00;100571.47;10411503;28;20041;-72
2024/01/02 04:16:49;;;;;;;48.65;20.13;;;;;;;-0.97;100.00;100574.50;10412203;28;20097;-72
2024/01/02 04:21:50;;;;;;;33.08;16.38;;;;;;;-1.00;100.00;100547.75;10412656;28;20116;-72
2024/01/02 04:26:53;;;;;;;38.92;14.07;;;;;;;-1.01;100.00;100551.31;10411965;28;20476;-72
2024/01/02 04:31:53;;;;;;;19.83;11.75;;;;;;;-1.08;100.00;100545.56;10412338;28;20116;-71
2024/01/02 04:36:54;;;;;;;19.02;10.70;;;;;;;-1.01;100.00;100536.50;10411220;28;20057;-71
2024/01/02 04:41:55;;;;;;;29.05;10.77;;;;;;;-1.10;100.00;100526.59;10412348;28;20056;-71
2024/01/02 04:46:56;;;;;;;28.38;11.73;;;;;;;-1.16;100.00;100529.56;10411431;28;20091;-72
2024/01/02 04:51:57;;;;;;;22.05;10.02;;;;;;;-1.09;100.00;100515.22;10411665;28;20044;-72
2024/01/02 04:56:58;;;;;;;25.27;10.70;;;;;;;-0.90;100.00;100535.00;10408435;28;20038;-71
2024/01/02 05:01:59;;;;;;;28.15;12.05;;;;;;;-0.87;100.00;100533.06;10411736;28;20493;-73
2024/01/02 05:07:01;;;;;;;18.52;10.27;;;;;;;-0.85;100.00;100533.81;10412421;28;20046;-73
2024/01/02 05:12:02;;;;;;;28.52;14.43;;;;;;;-1.01;100.00;100507.81;10419029;28;20047;-73
2024/01/02 05:17:03;;;;;;;49.88;14.45;;;;;;;-0.76;100.00;100537.66;10418603;28;20418;-73
2024/01/02 05:22:04;;;;;;;35.80;13.82;;;;;;;-0.47;100.00;100541.13;10416759;28;20050;-73
2024/01/02 05:27:05;;;;;;;26.65;12.05;;;;;;;-0.28;100.00;100543.47;10418338;28;20558;-73
2024/01/02 05:32:06;;;;;;;22.80;11.73;;;;;;;-0.04;100.00;100565.44;10418908;28;20084;-73
2024/01/02 05:37:06;;;;;;;37.72;18.50;;;;;;;0.26;100.00;100553.19;10417753;28;20085;-72
2024/01/02 05:42:07;;;;;;;60.65;20.83;;;;;;;0.71;100.00;100544.16;10417406;28;20562;-73
2024/01/02 05:47:08;;;;;;;27.58;17.90;;;;;;;0.58;100.00;100488.41;10417725;28;20042;-73
2024/01/02 05:52:09;;;;;;;25.85;14.85;;;;;;;1.02;100.00;100536.94;10417487;28;20045;-73
2024/01/02 05:57:11;;;;;;;49.15;13.43;;;;;;;0.74;100.00;100475.16;10417094;28;20045;-71
2024/01/02 06:02:12;;;;;;;65.22;13.13;;;;;;;0.91;100.00;100498.41;10410890;28;20075;-74
2024/01/02 06:07:13;;;;;;;44.03;11.70;;;;;;;1.20;100.00;100530.47;10412680;28;20560;-73
2024/01/02 06:12:13;;;;;;;47.75;12.18;;;;;;;1.24;100.00;100539.78;10416578;28;20038;-72
2024/01/02 06:17:14;;;;;;;23.13;11.52;;;;;;;0.79;100.00;100450.38;10411326;28;20034;-73
2024/01/02 06:22:15;;;;;;;28.55;11.55;;;;;;;1.37;100.00;100531.94;10412253;28;20416;-72
2024/01/02 06:27:16;;;;;;;47.05;12.30;;;;;;;1.52;100.00;100543.13;10413974;28;20094;-72
2024/01/02 06:32:17;;;;;;;41.95;11.30;;;;;;;1.72;100.00;100531.31;10415908;28;20156;-74
2024/01/02 06:37:18;;;;;;;46.53;12.05;;;;;;;1.48;100.00;100455.28;10414388;28;20057;-74
2024/01/02 06:42:19;;;;;;;32.60;12.10;;;;;;;1.68;100.00;100457.34;10413513;28;20041;-73
2024/01/02 06:47:19;;;;;;;31.85;12.00;;;;;;;2.21;100.00;100507.69;10413840;28;20045;-73
2024/01/02 06:52:20;;;;;;;51.67;13.02;;;;;;;2.44;100.00;100502.59;10413638;28;20095;-74
2024/01/02 06:57:21;;;;;;;42.33;11.30;;;;;;;2.58;100.00;100499.78;10412694;28;20408;-73
2024/01/02 07:02:22;;;;;;;57.08;11.35;;;;;;;2.77;100.00;100507.13;10413679;28;20084;-76
2024/01/02 07:07:23;;;;;;;30.23;11.10;;;;;;;2.66;100.00;100460.72;10412861;28;20045;-72
2024/01/02 07:12:23;;;;;;;34.28;10.98;;;;;;;3.08;100.00;100505.69;10414284;28;20068;-73
2024/01/02 07:17:25;;;;;;;52.67;11.23;;;;;;;3.27;100.00;100520.03;10412630;28;20057;-73
2024/01/02 07:22:29;;;;;;;55.13;11.48;;;;;;;3.02;100.00;100453.66;10414217;28;20045;-71
2024/01/02 07:27:30;;;;;;;44.33;12.07;;;;;;;3.14;100.00;100446.63;10411647;28;20034;-72
2024/01/02 07:32:30;;;;;;;34.88;11.55;;;;;;;3.25;100.00;100462.38;10409874;28;20041;-73
2024/01/02 07:37:34;;;;;;;60.38;12.30;;;;;;;3.63;100.00;100503.25;10411626;28;20057;-73
2024/01/02 07:42:35;;;;;;;29.25;12.85;;;;;;;3.57;100.00;100473.03;10376745;28;20049;-73
2024/01/02 07:47:36;;;;;;;42.97;12.98;;;;;;;3.69;100.00;100467.78;10410403;28;20038;-73
2024/01/02 07:52:37;;;;;;;34.75;11.70;;;;;;;3.71;100.00;100453.56;10412722;28;20095;-72
2024/01/02 07:57:38;;;;;;;16.52;10.90;;;;;;;3.76;100.00;100447.94;10410841;28;20044;-69
2024/01/02 08:02:39;;;;;;;49.33;23.23;;;;;;;3.73;100.00;100435.88;10405924;28;20047;-69
2024/01/02 08:07:40;;;;;;;24.55;14.93;;;;;;;3.87;100.00;100419.84;10380787;28;20120;-69
2024/01/02 08:12:40;;;;;;;19.73;12.65;;;;;;;3.50;100.00;100337.03;10397558;28;20517;-70
2024/01/02 08:17:41;;;;;;;185.88;120.40;;;;;;;3.83;100.00;100376.38;10412683;28;20046;-72
2024/01/02 08:22:43;;;;;;;126.07;80.35;;;;;;;3.92;100.00;100374.81;10399731;28;20141;-71
2024/01/02 08:27:43;;;;;;;100.03;73.18;;;;;;;3.97;100.00;100362.09;10394887;28;20048;-71
2024/01/02 08:32:45;;;;;;;89.65;64.82;;;;;;;4.03;100.00;100353.72;10395475;28;20049;-71
2024/01/02 08:37:46;;;;;;;140.90;105.90;;;;;;;4.09;100.00;100337.44;10396512;28;20083;-70
2024/01/02 08:42:46;;;;;;;67.20;51.38;;;;;;;4.23;100.00;100327.59;10397093;28;20041;-71
2024/01/02 08:47:47;;;;;;;29.42;22.83;;;;;;;3.88;100.00;100265.63;10397485;28;20037;-70
2024/01/02 08:52:48;;;;;;;24.92;17.40;;;;;;;4.37;100.00;100329.91;10405462;28;20469;-69
2024/01/02 08:57:49;;;;;;;20.83;14.07;;;;;;;4.27;100.00;100300.91;10398977;28;20083;-70
2024/01/02 09:02:50;;;;;;;20.17;12.35;;;;;;;4.50;100.00;100316.56;10399150;28;20041;-73
2024/01/02 09:07:50;;;;;;;20.20;12.18;;;;;;;4.52;100.00;100298.84;10402680;28;20455;-70
2024/01/02 09:12:51;;;;;;;17.27;12.63;;;;;;;4.76;100.00;100319.63;10405124;28;20140;-72
2024/01/02 09:17:52;;;;;;;20.33;11.82;;;;;;;4.77;100.00;100294.97;10418157;28;20049;-68
2024/01/02 09:22:53;;;;;;;17.00;12.35;;;;;;;4.60;100.00;100272.72;10412699;28;20045;-75
2024/01/02 09:28:00;;;;;;;18.30;11.50;;;;;;;4.76;100.00;100288.03;10375868;28;20042;-70
2024/01/02 09:33:01;;;;;;;16.42;11.48;;;;;;;4.87;100.00;100298.44;10384033;28;20068;-71
2024/01/02 09:38:04;;;;;;;24.15;15.10;;;;;;;4.92;100.00;100287.53;10407909;28;20072;-71
2024/01/02 09:43:19;;;;;;;25.45;13.80;;;;;;;5.03;100.00;100279.53;10417238;28;20037;-71
2024/01/02 09:48:38;;;;;;;44.25;25.30;;;;;;;4.95;100.00;100247.78;10417700;28;20084;-71
2024/01/02 09:53:50;;;;;;;159.45;130.50;;;;;;;4.96;100.00;100229.22;10403631;28;20041;-69
2024/01/02 09:59:27;;;;;;;27.70;23.30;;;;;;;4.99;100.00;100236.84;10391505;28;20050;-70
2024/01/02 10:05:00;;;;;;;19.77;15.25;;;;;;;5.03;100.00;100235.63;10390216;28;20191;-71
2024/01/02 10:10:12;;;;;;;17.03;12.67;;;;;;;4.87;100.00;100203.69;10384626;28;20049;-71
2024/01/02 10:15:25;;;;;;;18.08;12.10;;;;;;;4.91;100.00;100223.53;10376388;28;20487;-68
2024/01/02 10:20:47;;;;;;;18.25;10.57;;;;;;;4.92;100.00;100198.88;10374932;28;20060;-69
2024/01/02 10:25:54;;;;;;;18.35;12.30;;;;;;;4.53;100.00;100135.63;10375277;28;20048;-69
2024/01/02 10:31:11;;;;;;;24.60;16.42;;;;;;;5.07;100.00;100194.03;10413674;28;20033;-69
2024/01/02 10:36:22;;;;;;;25.42;18.88;;;;;;;4.97;100.00;100167.72;10414168;28;20049;-70
2024/01/02 10:41:26;;;;;;;23.95;16.77;;;;;;;4.98;100.00;100158.84;10406941;28;20057;-70
2024/01/02 10:46:59;;;;;;;20.20;12.55;;;;;;;5.07;100.00;100167.72;10415818;28;20541;-71
2024/01/02 10:52:13;;;;;;;20.33;13.68;;;;;;;4.87;100.00;100132.63;10413690;28;20049;-70
2024/01/02 10:57:33;;;;;;;16.75;12.40;;;;;;;4.99;100.00;100144.69;10413712;28;20124;-71
2024/01/02 11:02:51;;;;;;;18.67;12.20;;;;;;;4.92;100.00;100145.41;10415242;28;20049;-71
2024/01/02 11:08:11;;;;;;;19.42;13.13;;;;;;;5.08;100.00;100139.59;10393429;28;20153;-71
2024/01/02 11:13:15;;;;;;;23.88;13.60;;;;;;;4.76;100.00;100067.81;10395629;28;20046;-70
2024/01/02 11:18:18;;;;;;;18.58;13.02;;;;;;;5.09;100.00;100121.03;10374199;28;20123;-70
2024/01/02 11:23:26;;;;;;;16.48;11.85;;;;;;;5.07;100.00;100128.22;10373580;28;20140;-70
2024/01/02 11:28:28;;;;;;;19.58;12.85;;;;;;;5.04;100.00;100126.69;10384858;28;20046;-70
2024/01/02 11:33:51;;;;;;;18.65;12.35;;;;;;;5.09;100.00;100136.00;10372401;28;20046;-69
2024/01/02 11:39:13;;;;;;;29.77;13.32;;;;;;;5.00;100.00;100138.47;10382679;28;20587;-70
2024/01/02 11:44:39;;;;;;;21.65;14.20;;;;;;;4.93;100.00;100129.44;10371918;28;20054;-70
2024/01/02 11:49:45;;;;;;;18.50;12.50;;;;;;;4.80;100.00;100110.47;10383612;28;20049;-71
2024/01/02 11:55:18;;;;;;;21.52;13.48;;;;;;;4.83;100.00;100120.72;10410326;28;20045;-70
2024/01/02 12:00:37;;;;;;;24.70;13.85;;;;;;;4.79;100.00;100114.91;10410815;28;20562;-71
2024/01/02 12:05:41;;;;;;;20.73;12.43;;;;;;;4.68;100.00;100101.03;10411498;28;20045;-70
2024/01/02 12:10:48;;;;;;;20.90;12.75;;;;;;;4.44;100.00;100073.28;10379222;28;20034;-70
2024/01/02 12:15:54;;;;;;;22.23;14.02;;;;;;;4.71;100.00;100117.38;10372785;28;20038;-70
2024/01/02 12:21:04;;;;;;;20.25;13.80;;;;;;;4.25;100.00;100058.31;10379573;28;20029;-70
2024/01/02 12:26:06;;;;;;;23.08;13.60;;;;;;;4.48;100.00;100100.97;10379959;28;20053;-70
2024/01/02 12:31:33;;;;;;;19.58;12.65;;;;;;;4.59;100.00;100100.03;10379801;28;20057;-70
2024/01/02 12:36:47;;;;;;;25.70;13.98;;;;;;;4.65;100.00;100117.09;10379598;28;20072;-71
2024/01/02 12:41:52;;;;;;;23.83;13.63;;;;;;;4.70;100.00;100112.25;10378048;28;20045;-70
2024/01/02 12:47:05;;;;;;;23.83;13.65;;;;;;;4.38;100.00;100078.28;10379107;28;20041;-70
2024/01/02 12:52:12;;;;;;;24.65;16.65;;;;;;;4.73;100.00;100131.25;10378483;28;20044;-71
2024/01/02 12:57:14;;;;;;;22.48;12.98;;;;;;;4.65;100.00;100120.56;10378843;28;20046;-70
2024/01/02 13:02:16;;;;;;;20.00;13.07;;;;;;;4.60;100.00;100093.81;10379054;28;20494;-70
2024/01/02 13:07:17;;;;;;;21.27;12.75;;;;;;;4.60;100.00;100096.44;10377762;28;20038;-70
2024/01/02 13:12:18;;;;;;;30.63;12.60;;;;;;;4.45;100.00;100085.47;10379277;28;20468;-71
2024/01/02 13:17:19;;;;;;;27.73;12.90;;;;;;;4.58;100.00;100098.41;10376244;28;20030;-71
2024/01/02 13:22:23;;;;;;;25.75;12.38;;;;;;;4.55;100.00;100099.50;10377936;28;20045;-72
2024/01/02 13:27:25;;;;;;;;;;;;;;;4.77;100.00;100103.66;10377882;28;20042;-71
2024/01/02 13:32:27;;;;;;;32.38;11.73;;;;;;;4.47;100.00;100087.97;10377239;28;19956;-71
2024/01/02 13:37:28;;;;;;;24.83;12.68;;;;;;;4.10;100.00;100028.94;10377537;28;20140;-71
2024/01/02 13:42:31;;;;;;;23.50;12.05;;;;;;;4.42;100.00;100084.91;10395917;28;20045;-71
2024/01/02 13:47:34;;;;;;;18.45;11.50;;;;;;;4.32;100.00;100090.97;10416247;28;20516;-72
2024/01/02 13:52:35;;;;;;;16.25;10.98;;;;;;;4.19;100.00;100076.38;10417650;28;20029;-70
2024/01/02 13:57:36;;;;;;;23.63;11.75;;;;;;;4.18;100.00;100083.44;10417479;28;20095;-71
2024/01/02 14:02:39;;;;;;;19.80;12.48;;;;;;;4.22;100.00;100095.38;10417289;28;20045;-70
2024/01/02 14:07:43;;;;;;;29.05;12.93;;;;;;;4.27;100.00;100092.34;10417039;28;20045;-70
2024/01/02 14:12:47;;;;;;;17.63;12.07;;;;;;;4.12;100.00;100068.22;10417021;28;20565;-71
2024/01/02 14:17:59;;;;;;;20.13;13.23;;;;;;;4.20;100.00;100073.66;10416781;28;20072;-70
2024/01/02 14:23:10;;;;;;;18.77;12.95;;;;;;;4.21;100.00;100088.44;10415808;28;20390;-71
2024/01/02 14:28:17;;;;;;;21.85;13.25;;;;;;;4.18;100.00;100065.03;10415019;28;20046;-70
2024/01/02 14:34:01;;;;;;;17.13;11.05;;;;;;;4.18;100.00;100065.03;10415901;28;20061;-70
2024/01/02 14:39:20;;;;;;;;;;;;;;;4.26;100.00;100046.00;10416943;28;20394;-71
2024/01/02 14:44:30;;;;;;;24.27;13.10;;;;;;;4.08;100.00;100051.06;10409067;28;19944;-71
2024/01/02 14:49:33;;;;;;;18.42;10.85;;;;;;;4.04;100.00;100047.88;10405211;28;20588;-72
2024/01/02 14:54:59;;;;;;;22.95;10.77;;;;;;;4.02;100.00;100031.38;10405077;28;20065;-72
2024/01/02 15:00:08;;;;;;;17.98;10.73;;;;;;;4.07;100.00;100042.34;10382408;28;20041;-73
2024/01/02 15:05:18;;;;;;;22.40;10.70;;;;;;;4.04;100.00;100029.47;10392714;28;20531;-71
2024/01/02 15:10:30;;;;;;;19.08;11.52;;;;;;;4.00;100.00;100012.28;10401515;28;20095;-71
2024/01/02 15:15:59;;;;;;;18.38;11.60;;;;;;;4.17;100.00;100029.22;10405232;28;20041;-72
2024/01/02 15:21:03;;;;;;;28.85;12.85;;;;;;;4.05;100.00;100025.88;10404591;28;20136;-72
2024/01/02 15:26:17;;;;;;;20.20;12.25;;;;;;;3.92;100.00;100016.53;10395367;28;20506;-72
2024/01/02 15:31:27;;;;;;;18.67;11.02;;;;;;;3.89;100.00;100013.22;10397654;28;20077;-72
2024/01/02 15:36:39;;;;;;;20.13;11.43;;;;;;;3.88;100.00;100000.22;10405658;28;20049;-72
2024/01/02 15:42:03;;;;;;;30.48;13.27;;;;;;;3.99;100.00;100013.25;10405902;28;20045;-72
2024/01/02 15:47:22;;;;;;;38.28;12.25;;;;;;;3.97;100.00;100016.97;10404940;28;20041;-74
2024/01/02 15:52:41;;;;;;;34.30;12.45;;;;;;;3.70;100.00;99979.00;10410509;28;20145;-74
2024/01/02 15:57:53;;;;;;;36.28;13.10;;;;;;;4.05;100.00;100010.09;10404568;28;20421;-74
2024/01/02 16:03:01;;;;;;;21.77;12.55;;;;;;;4.08;100.00;100009.81;10412972;28;20406;-73
2024/01/02 16:08:11;;;;;;;38.90;12.80;;;;;;;4.16;100.00;100021.44;10403828;28;20051;-73
2024/01/02 16:13:56;;;;;;;20.25;12.95;;;;;;;4.18;100.00;100001.13;10389412;28;20375;-74
2024/01/02 16:19:15;;;;;;;30.20;11.77;;;;;;;4.06;100.00;100001.22;10406649;28;20041;-74
2024/01/02 16:24:36;;;;;;;44.13;12.15;;;;;;;3.99;100.00;99976.47;10406677;28;20053;-74
2024/01/02 16:29:48;;;;;;;44.38;13.07;;;;;;;4.04;100.00;99960.31;10386023;28;20832;-72
2024/01/02 16:35:10;;;;;;;34.90;13.20;;;;;;;4.07;100.00;99958.22;10399973;28;20041;-73
2024/01/02 16:40:45;;;;;;;55.05;13.25;;;;;;;4.03;100.00;99943.69;10412356;28;20045;-72
2024/01/02 16:45:47;;;;;;;22.60;12.32;;;;;;;3.98;100.00;99951.16;10411855;28;20491;-72
2024/01/02 16:50:52;;;;;;;32.22;12.27;;;;;;;3.94;100.00;99949.75;10408339;28;20042;-73
2024/01/02 16:55:53;;;;;;;18.02;12.40;;;;;;;4.00;100.00;99946.56;10412225;28;20038;-68
2024/01/02 17:00:58;;;;;;;36.45;13.15;;;;;;;3.89;100.00;99923.06;10411296;28;20049;-67
2024/01/02 17:06:02;;;;;;;38.63;12.68;;;;;;;3.83;100.00;99894.69;10418443;28;20523;-71
2024/01/02 17:11:05;;;;;;;135.13;13.88;;;;;;;3.86;100.00;99899.69;10418240;28;20041;-72
2024/01/02 17:16:06;;;;;;;127.68;14.45;;;;;;;3.72;100.00;99863.28;10418345;28;20045;-70
2024/01/02 17:21:08;;;;;;;62.05;13.13;;;;;;;3.98;100.00;99919.63;10419196;28;20048;-72
2024/01/02 17:26:10;;;;;;;114.70;14.38;;;;;;;3.90;100.00;99916.84;10417315;28;20557;-77
2024/01/02 17:31:12;;;;;;;190.48;15.50;;;;;;;3.90;100.00;99906.31;10414580;28;20037;-71
2024/01/02 17:36:16;;;;;;;119.40;15.88;;;;;;;3.57;100.00;99847.91;10418069;28;20079;-72
2024/01/02 17:41:19;;;;;;;157.57;15.57;;;;;;;3.62;100.00;99848.34;10417914;28;20052;-73
2024/01/02 17:46:20;;;;;;;196.75;15.15;;;;;;;3.73;100.00;99870.19;10417951;28;20036;-73
2024/01/02 17:51:22;;;;;;;257.85;15.85;;;;;;;3.79;100.00;99878.34;10416059;28;20045;-71
2024/01/02 17:56:24;;;;;;;207.88;16.52;;;;;;;3.67;100.00;99851.38;10412924;28;20128;-68
2024/01/02 18:01:26;;;;;;;420.65;18.50;;;;;;;3.41;100.00;99811.66;10414993;28;20048;-71
2024/01/02 18:06:34;;;;;;;312.30;17.92;;;;;;;3.72;100.00;99855.41;10417671;28;20037;-77
2024/01/02 18:11:57;;;;;;;254.25;16.10;;;;;;;3.48;100.00;99790.13;10414668;28;20041;-76
2024/01/02 18:17:12;;;;;;;434.47;21.30;;;;;;;3.58;100.00;99806.72;10416456;28;20064;-76
2024/01/02 18:22:30;;;;;;;328.02;17.75;;;;;;;3.65;100.00;99808.66;10416584;28;20394;-76
2024/01/02 18:27:55;;;;;;;416.35;17.27;;;;;;;3.31;100.00;99746.97;10416039;28;20064;-75
2024/01/02 18:33:06;;;;;;;340.55;15.68;;;;;;;3.59;100.00;99803.97;10415071;28;20132;-74
2024/01/02 18:38:18;;;;;;;282.05;15.40;;;;;;;3.66;100.00;99807.69;10415620;28;20535;-76
2024/01/02 18:43:45;;;;;;;461.00;20.02;;;;;;;3.71;100.00;99804.66;10412504;28;20048;-77
2024/01/02 18:48:50;;;;;;;456.50;18.90;;;;;;;3.59;100.00;99777.69;10405638;28;20057;-74
2024/01/02 18:54:09;;;;;;;533.47;20.33;;;;;;;3.51;100.00;99759.16;10414195;28;20046;-76
2024/01/02 18:59:11;;;;;;;404.55;16.67;;;;;;;3.12;100.00;99695.28;10415135;28;20037;-75
2024/01/02 19:04:11;;;;;;;226.73;14.85;;;;;;;3.46;100.00;99750.03;10414367;28;20057;-74
2024/01/02 19:09:14;;;;;;;277.35;17.95;;;;;;;3.20;100.00;99684.91;10413130;28;20041;-74
2024/01/02 19:14:15;;;;;;;205.18;15.82;;;;;;;3.48;100.00;99704.28;10414666;28;20119;-74
2024/01/02 19:19:16;;;;;;;363.50;18.33;;;;;;;3.59;100.00;99719.06;10413768;28;20124;-74
2024/01/02 19:24:18;;;;;;;334.52;17.52;;;;;;;3.50;100.00;99715.50;10414674;28;20048;-74
2024/01/02 19:29:19;;;;;;;287.98;14.32;;;;;;;3.50;100.00;99726.00;10413333;28;20387;-75
2024/01/02 19:34:20;;;;;;;221.20;14.73;;;;;;;3.18;100.00;99690.31;10413978;28;20037;-75
2024/01/02 19:39:21;;;;;;;235.00;14.20;;;;;;;3.47;100.00;99744.66;10414013;28;20075;-75
2024/01/02 19:44:24;;;;;;;279.50;16.33;;;;;;;3.44;100.00;99742.31;10413008;28;20052;-77
2024/01/02 19:49:25;;;;;;;287.93;13.43;;;;;;;3.42;100.00;99739.81;10414462;28;20041;-74
2024/01/02 19:54:26;;;;;;;205.40;12.55;;;;;;;2.99;100.00;99671.91;10413460;28;20119;-75
2024/01/02 19:59:27;;;;;;;214.00;12.40;;;;;;;3.45;100.00;99736.09;10413296;28;20041;-75
2024/01/02 20:04:36;;;;;;;146.73;10.85;;;;;;;3.41;100.00;99738.16;10413228;28;20408;-74
2024/01/02 20:09:40;;;;;;;103.63;10.25;;;;;;;3.35;100.00;99728.19;10413072;28;20037;-77
2024/01/02 20:14:50;;;;;;;173.68;13.80;;;;;;;3.39;100.00;99718.25;10413586;28;20520;-75
2024/01/02 20:19:55;;;;;;;219.45;12.25;;;;;;;3.23;100.00;99697.78;10412790;28;20048;-75
2024/01/02 20:24:56;;;;;;;246.38;12.93;;;;;;;3.23;100.00;99683.81;10412206;28;20183;-76
2024/01/02 20:29:57;;;;;;;313.40;13.40;;;;;;;3.11;100.00;99652.47;10410711;28;20037;-75
2024/01/02 20:35:03;;;;;;;102.13;10.68;;;;;;;3.25;100.00;99645.16;10411239;28;20048;-76
2024/01/02 20:40:23;;;;;;;105.70;11.55;;;;;;;3.20;100.00;99624.53;10417938;28;20140;-76
2024/01/02 20:45:27;;;;;;;119.10;10.40;;;;;;;3.00;100.00;99607.16;10419572;28;20448;-76
2024/01/02 20:50:31;;;;;;;94.13;11.30;;;;;;;3.00;100.00;99596.69;10420670;28;20042;-75
2024/01/02 20:55:32;;;;;;;83.05;9.25;;;;;;;2.96;100.00;99575.97;10420010;28;20041;-75
2024/01/02 21:00:33;;;;;;;132.43;11.25;;;;;;;2.77;100.00;99538.41;10419767;28;20045;-75
2024/01/02 21:05:46;;;;;;;229.77;11.88;;;;;;;3.04;100.00;99566.56;10419298;28;20433;-76
2024/01/02 21:10:57;;;;;;;112.78;12.00;;;;;;;3.12;100.00;99549.16;10419541;28;20045;-76
2024/01/02 21:16:11;;;;;;;145.77;11.60;;;;;;;2.89;100.00;99503.19;10419297;28;20052;-76
2024/01/02 21:21:38;;;;;;;125.07;11.57;;;;;;;2.93;100.00;99478.31;10418419;28;20528;-76
2024/01/02 21:26:39;;;;;;;149.00;11.20;;;;;;;3.03;100.00;99497.50;10418596;28;20049;-75
2024/01/02 21:31:42;;;;;;;129.35;10.75;;;;;;;3.08;100.00;99505.81;10419406;28;20439;-75
2024/01/02 21:36:43;;;;;;;153.93;12.18;;;;;;;3.08;100.00;99499.69;10417834;28;20107;-76
2024/01/02 21:41:44;;;;;;;134.90;12.00;;;;;;;3.08;100.00;99505.81;10417306;28;20044;-75
2024/01/02 21:46:45;;;;;;;225.55;13.85;;;;;;;2.83;100.00;99461.78;10418494;28;20048;-75
2024/01/02 21:51:47;;;;;;;119.53;12.38;;;;;;;3.02;100.00;99498.50;10417266;28;20049;-75
2024/01/02 21:56:48;;;;;;;157.43;12.65;;;;;;;2.56;100.00;99423.16;10418071;28;20519;-75
2024/01/02 22:01:49;;;;;;;178.25;14.52;;;;;;;2.99;100.00;99490.88;10416810;28;20045;-75
2024/01/02 22:06:51;;;;;;;155.23;13.35;;;;;;;2.88;100.00;99470.06;10417488;28;20591;-75
2024/01/02 22:11:57;;;;;;;99.32;11.73;;;;;;;2.91;100.00;99469.78;10417037;28;20049;-76
2024/01/02 22:17:02;;;;;;;79.53;9.55;;;;;;;2.84;100.00;99450.31;10416448;28;20041;-77
2024/01/02 22:22:11;;;;;;;145.27;11.45;;;;;;;2.81;100.00;99432.22;10416764;28;20040;-76
2024/01/02 22:27:11;;;;;;;163.13;10.73;;;;;;;2.62;100.00;99393.75;10415790;28;20501;-76
2024/01/02 22:32:12;;;;;;;135.70;11.68;;;;;;;2.77;100.00;99417.75;10416348;28;20088;-76
2024/01/02 22:37:24;;;;;;;128.35;10.45;;;;;;;2.59;100.00;99366.00;10416003;28;20133;-76
2024/01/02 22:42:26;;;;;;;140.45;11.70;;;;;;;2.83;100.00;99411.94;10415068;28;20056;-75
2024/01/02 22:47:27;;;;;;;91.85;10.77;;;;;;;2.87;100.00;99410.69;10415933;28;20041;-77
2024/01/02 22:52:28;;;;;;;42.40;8.65;;;;;;;2.84;100.00;99398.69;10415451;28;20409;-76